createdAt,value
2018-07-30T00:00:15.168Z,22.70
2018-07-30T00:02:45.867Z,22.70
2018-07-30T00:05:16.129Z,22.70
2018-07-30T00:07:46.196Z,22.70
2018-07-30T00:10:16.294Z,22.70
2018-07-30T00:12:46.376Z,22.70
2018-07-30T00:15:16.494Z,22.60
2018-07-30T00:17:46.536Z,22.70
2018-07-30T00:20:16.596Z,22.70
2018-07-30T00:22:46.552Z,22.70
2018-07-30T00:25:16.643Z,22.70
2018-07-30T00:27:46.979Z,22.70
2018-07-30T00:30:17.046Z,22.60
2018-07-30T00:32:47.915Z,22.60
2018-07-30T00:35:18.088Z,22.60
2018-07-30T00:37:48.287Z,22.60
2018-07-30T00:40:18.291Z,22.60
2018-07-30T00:42:49.175Z,22.50
2018-07-30T00:45:19.329Z,22.50
2018-07-30T00:47:49.456Z,22.50
2018-07-30T00:50:20.444Z,22.40
2018-07-30T00:52:50.492Z,22.40
2018-07-30T00:55:21.219Z,22.30
2018-07-30T00:57:51.283Z,22.30
2018-07-30T01:00:21.367Z,22.30
2018-07-30T01:02:51.431Z,22.30
2018-07-30T01:05:21.486Z,22.20
2018-07-30T01:07:51.550Z,22.30
2018-07-30T01:10:21.583Z,22.20
2018-07-30T01:12:51.627Z,22.20
2018-07-30T01:15:21.688Z,22.20
2018-07-30T01:17:51.934Z,22.20
2018-07-30T01:20:22.040Z,22.20
2018-07-30T01:22:52.108Z,22.20
2018-07-30T01:25:22.293Z,22.30
2018-07-30T01:27:53.060Z,22.30
2018-07-30T01:30:23.157Z,22.30
2018-07-30T01:32:53.211Z,22.30
2018-07-30T01:35:24.105Z,22.30
2018-07-30T01:37:54.183Z,22.30
2018-07-30T01:40:24.233Z,22.40
2018-07-30T01:42:55.088Z,22.40
2018-07-30T01:45:25.190Z,22.40
2018-07-30T01:47:55.324Z,22.40
2018-07-30T01:50:25.379Z,22.40
2018-07-30T01:52:55.503Z,22.40
2018-07-30T01:55:25.779Z,22.40
2018-07-30T01:57:55.839Z,22.30
2018-07-30T02:00:26.008Z,22.30
2018-07-30T02:02:56.145Z,22.30
2018-07-30T02:05:26.304Z,22.30
2018-07-30T02:07:56.456Z,22.40
2018-07-30T02:10:27.192Z,22.40
2018-07-30T02:12:57.391Z,22.40
2018-07-30T02:15:28.171Z,22.30
2018-07-30T02:17:58.288Z,22.30
2018-07-30T02:20:28.395Z,22.40
2018-07-30T02:23:01.292Z,22.40
2018-07-30T02:25:31.390Z,22.40
2018-07-30T02:28:01.475Z,22.40
2018-07-30T02:30:31.720Z,22.30
2018-07-30T02:33:01.904Z,22.30
2018-07-30T02:35:32.016Z,22.30
2018-07-30T02:38:02.191Z,22.30
2018-07-30T02:40:32.652Z,22.30
2018-07-30T02:43:02.776Z,22.30
2018-07-30T02:45:32.876Z,22.20
2018-07-30T02:48:03.000Z,22.20
2018-07-30T02:50:33.036Z,22.20
2018-07-30T02:53:03.820Z,22.30
2018-07-30T02:55:33.948Z,22.20
2018-07-30T02:58:04.140Z,22.20
2018-07-30T03:00:34.800Z,22.20
2018-07-30T03:03:04.912Z,22.20
2018-07-30T03:05:35.090Z,22.20
2018-07-30T03:08:05.194Z,22.20
2018-07-30T03:10:35.321Z,22.20
2018-07-30T03:13:05.757Z,22.20
2018-07-30T03:15:35.959Z,22.20
2018-07-30T03:18:06.472Z,22.20
2018-07-30T03:20:36.543Z,22.30
2018-07-30T03:23:06.748Z,22.30
2018-07-30T03:25:36.884Z,22.30
2018-07-30T03:28:07.128Z,22.30
2018-07-30T03:30:37.330Z,22.30
2018-07-30T03:33:07.491Z,22.30
2018-07-30T03:35:37.461Z,22.30
2018-07-30T03:38:07.600Z,22.30
2018-07-30T03:40:37.705Z,22.30
2018-07-30T03:43:07.900Z,22.30
2018-07-30T03:45:38.056Z,22.30
2018-07-30T03:48:08.189Z,22.30
2018-07-30T03:50:38.274Z,22.40
2018-07-30T03:53:08.440Z,22.40
2018-07-30T03:55:38.564Z,22.40
2018-07-30T03:58:08.690Z,22.40
2018-07-30T04:00:38.922Z,22.50
2018-07-30T04:03:09.031Z,22.50
2018-07-30T04:05:39.172Z,22.50
2018-07-30T04:08:09.239Z,22.60
2018-07-30T04:10:39.455Z,22.60
2018-07-30T04:13:09.544Z,22.60
2018-07-30T04:15:40.223Z,22.60
2018-07-30T04:18:10.400Z,22.70
2018-07-30T04:20:40.598Z,22.70
2018-07-30T04:23:10.572Z,22.70
2018-07-30T04:25:40.780Z,22.80
2018-07-30T04:28:10.874Z,22.80
2018-07-30T04:30:41.019Z,22.80
2018-07-30T04:33:11.194Z,22.80
2018-07-30T04:35:41.337Z,22.90
2018-07-30T04:38:11.460Z,22.90
2018-07-30T04:40:41.664Z,22.90
2018-07-30T04:43:11.812Z,22.90
2018-07-30T04:45:41.929Z,23.00
2018-07-30T04:48:12.040Z,23.00
2018-07-30T04:50:42.154Z,23.00
2018-07-30T04:53:12.299Z,23.10
2018-07-30T04:55:42.525Z,23.00
2018-07-30T04:58:13.028Z,23.10
2018-07-30T05:00:43.136Z,23.10
2018-07-30T05:03:13.417Z,23.10
2018-07-30T05:05:43.584Z,23.20
2018-07-30T05:08:14.420Z,23.20
2018-07-30T05:10:44.607Z,23.30
2018-07-30T05:13:14.822Z,23.30
2018-07-30T05:15:44.868Z,23.30
2018-07-30T05:18:15.741Z,23.30
2018-07-30T05:20:45.796Z,23.40
2018-07-30T05:23:17.527Z,23.40
2018-07-30T05:25:47.700Z,23.50
2018-07-30T05:28:17.828Z,23.50
2018-07-30T05:30:48.036Z,23.50
2018-07-30T05:33:18.158Z,23.50
2018-07-30T05:35:48.688Z,23.60
2018-07-30T05:38:18.800Z,23.60
2018-07-30T05:40:48.932Z,23.70
2018-07-30T05:43:19.115Z,23.70
2018-07-30T05:45:49.238Z,23.70
2018-07-30T05:48:19.439Z,23.70
2018-07-30T05:50:49.652Z,23.70
2018-07-30T05:53:19.783Z,23.80
2018-07-30T05:55:49.973Z,23.80
2018-07-30T05:58:21.281Z,23.80
2018-07-30T06:00:51.402Z,23.80
2018-07-30T06:03:21.560Z,23.80
2018-07-30T06:05:51.717Z,23.90
2018-07-30T06:08:21.827Z,24.00
2018-07-30T06:10:51.948Z,24.10
2018-07-30T06:13:22.181Z,24.20
2018-07-30T06:15:52.340Z,24.20
2018-07-30T06:18:22.582Z,24.40
2018-07-30T06:20:52.894Z,24.50
2018-07-30T06:23:23.110Z,24.60
2018-07-30T06:25:53.412Z,24.70
2018-07-30T06:28:23.547Z,24.80
2018-07-30T06:30:53.724Z,24.80
2018-07-30T06:33:23.912Z,24.90
2018-07-30T06:35:54.051Z,25.10
2018-07-30T06:38:24.240Z,25.10
2018-07-30T06:40:55.072Z,25.20
2018-07-30T06:43:25.644Z,25.20
2018-07-30T06:45:55.724Z,25.30
2018-07-30T06:50:55.676Z,25.30
2018-07-30T06:53:25.817Z,25.40
2018-07-30T06:55:56.440Z,25.40
2018-07-30T06:58:26.596Z,25.20
2018-07-30T07:00:57.657Z,25.10
2018-07-30T07:03:27.705Z,25.10
2018-07-30T07:05:57.726Z,25.20
2018-07-30T07:08:28.063Z,25.10
2018-07-30T07:10:58.279Z,25.10
2018-07-30T07:13:28.326Z,25.10
2018-07-30T07:15:58.420Z,25.10
2018-07-30T07:20:58.221Z,24.80
2018-07-30T07:23:28.371Z,24.90
2018-07-30T07:25:58.450Z,25.00
2018-07-30T07:28:28.547Z,24.80
2018-07-30T07:30:58.644Z,24.70
2018-07-30T07:33:28.732Z,24.70
2018-07-30T07:35:58.809Z,24.70
2018-07-30T07:38:28.860Z,24.60
2018-07-30T07:40:58.980Z,24.70
2018-07-30T07:43:29.153Z,24.80
2018-07-30T07:45:59.298Z,25.00
2018-07-30T07:48:29.400Z,25.30
2018-07-30T07:50:59.750Z,25.40
2018-07-30T07:53:29.724Z,25.50
2018-07-30T07:55:59.894Z,25.40
2018-07-30T07:58:29.990Z,25.50
2018-07-30T08:01:00.093Z,25.50
2018-07-30T08:03:30.365Z,25.70
2018-07-30T08:06:00.532Z,25.60
2018-07-30T08:08:30.812Z,25.70
2018-07-30T08:11:00.901Z,25.70
2018-07-30T08:16:00.548Z,25.70
2018-07-30T08:18:30.660Z,26.00
2018-07-30T08:21:00.703Z,26.00
2018-07-30T08:23:30.889Z,26.00
2018-07-30T08:26:01.044Z,25.90
2018-07-30T08:28:31.187Z,25.90
2018-07-30T08:31:01.328Z,25.80
2018-07-30T08:33:31.508Z,25.80
2018-07-30T08:36:01.615Z,25.80
2018-07-30T08:41:01.192Z,26.30
2018-07-30T08:43:31.312Z,26.50
2018-07-30T08:46:01.456Z,26.60
2018-07-30T08:48:31.608Z,26.40
2018-07-30T08:51:01.756Z,26.50
2018-07-30T08:53:31.861Z,26.70
2018-07-30T08:56:02.869Z,26.90
2018-07-30T08:58:32.976Z,27.00
2018-07-30T09:01:03.460Z,26.70
2018-07-30T09:03:33.604Z,26.70
2018-07-30T09:06:03.752Z,27.10
2018-07-30T09:08:33.887Z,26.90
2018-07-30T09:11:04.101Z,27.10
2018-07-30T09:16:03.906Z,26.80
2018-07-30T09:18:34.175Z,26.90
2018-07-30T09:21:04.328Z,26.90
2018-07-30T09:23:34.381Z,26.90
2018-07-30T09:26:04.553Z,26.90
2018-07-30T09:28:34.664Z,27.00
2018-07-30T09:31:04.835Z,27.00
2018-07-30T09:33:34.999Z,26.90
2018-07-30T09:36:05.272Z,27.10
2018-07-30T09:38:35.437Z,27.30
2018-07-30T09:41:05.572Z,27.20
2018-07-30T09:43:35.657Z,27.30
2018-07-30T09:46:05.911Z,27.60
2018-07-30T09:48:36.016Z,27.50
2018-07-30T09:51:06.251Z,27.20
2018-07-30T09:53:36.504Z,27.40
2018-07-30T09:56:06.810Z,27.10
2018-07-30T09:58:37.352Z,27.40
2018-07-30T10:01:13.706Z,27.50
2018-07-30T10:03:43.831Z,27.40
2018-07-30T10:08:43.991Z,27.30
2018-07-30T10:11:14.135Z,27.40
2018-07-30T10:13:44.595Z,27.10
2018-07-30T10:16:14.709Z,27.00
2018-07-30T10:18:44.924Z,26.70
2018-07-30T10:21:15.118Z,26.80
2018-07-30T10:23:45.429Z,27.00
2018-07-30T10:26:15.560Z,26.80
2018-07-30T10:28:45.700Z,27.00
2018-07-30T10:31:15.828Z,27.10
2018-07-30T10:33:46.003Z,26.90
2018-07-30T10:36:16.180Z,26.80
2018-07-30T10:38:46.360Z,27.00
2018-07-30T10:41:16.492Z,27.00
2018-07-30T10:43:46.672Z,26.70
2018-07-30T10:46:16.836Z,26.60
2018-07-30T10:48:46.979Z,26.50
2018-07-30T10:51:17.104Z,26.10
2018-07-30T10:53:47.227Z,26.10
2018-07-30T10:56:17.409Z,26.10
2018-07-30T10:58:47.600Z,26.10
2018-07-30T11:01:17.832Z,26.30
2018-07-30T11:03:48.052Z,26.40
2018-07-30T11:06:18.272Z,26.10
2018-07-30T11:08:48.384Z,26.10
2018-07-30T11:11:18.437Z,26.00
2018-07-30T11:13:49.095Z,25.90
2018-07-30T11:16:19.259Z,25.90
2018-07-30T11:18:49.484Z,26.00
2018-07-30T11:21:19.680Z,26.20
2018-07-30T11:23:50.754Z,25.80
2018-07-30T11:26:20.899Z,25.90
2018-07-30T11:28:51.037Z,25.70
2018-07-30T11:31:21.169Z,25.70
2018-07-30T11:33:51.268Z,25.70
2018-07-30T11:36:21.384Z,25.90
2018-07-30T11:38:51.927Z,26.30
2018-07-30T11:41:22.028Z,26.60
2018-07-30T11:43:52.168Z,27.20
2018-07-30T11:46:22.383Z,27.50
2018-07-30T11:48:52.503Z,27.90
2018-07-30T11:51:22.603Z,28.30
2018-07-30T11:53:52.748Z,28.20
2018-07-30T11:56:22.847Z,27.60
2018-07-30T12:01:23.398Z,27.70
2018-07-30T12:03:53.530Z,27.70
2018-07-30T12:13:54.247Z,26.40
2018-07-30T12:16:24.358Z,26.30
2018-07-30T12:18:55.232Z,26.20
2018-07-30T12:21:25.309Z,26.20
2018-07-30T12:23:56.316Z,26.20
2018-07-30T12:26:27.453Z,26.40
2018-07-30T12:28:57.738Z,26.70
2018-07-30T12:31:27.959Z,26.70
2018-07-30T12:33:58.152Z,26.70
2018-07-30T12:36:28.271Z,26.90
2018-07-30T12:38:59.163Z,26.50
2018-07-30T12:41:32.436Z,26.50
2018-07-30T12:44:02.616Z,26.70
2018-07-30T12:46:32.715Z,26.50
2018-07-30T12:49:03.024Z,26.30
2018-07-30T12:51:33.144Z,26.10
2018-07-30T12:54:03.225Z,26.10
2018-07-30T12:56:33.572Z,26.10
2018-07-30T12:59:04.134Z,26.40
2018-07-30T13:04:04.207Z,26.30
2018-07-30T13:06:34.316Z,26.40
2018-07-30T13:09:06.052Z,26.30
2018-07-30T13:11:36.292Z,26.20
2018-07-30T13:14:06.399Z,26.40
2018-07-30T13:16:36.578Z,26.40
2018-07-30T13:19:06.725Z,26.50
2018-07-30T13:21:36.871Z,26.50
2018-07-30T13:24:07.194Z,26.40
2018-07-30T13:26:37.399Z,26.50
2018-07-30T13:29:07.660Z,26.70
2018-07-30T13:31:37.720Z,26.90
2018-07-30T13:34:07.831Z,26.90
2018-07-30T13:36:37.951Z,26.80
2018-07-30T13:41:38.980Z,27.00
2018-07-30T13:44:09.077Z,27.10
2018-07-30T13:46:39.179Z,27.10
2018-07-30T13:49:09.298Z,27.10
2018-07-30T13:51:39.443Z,26.80
2018-07-30T13:54:09.560Z,27.00
2018-07-30T13:56:39.781Z,27.20
2018-07-30T13:59:09.984Z,27.10
2018-07-30T14:01:40.062Z,27.10
2018-07-30T14:04:10.185Z,27.40
2018-07-30T14:06:40.386Z,27.30
2018-07-30T14:09:11.710Z,26.70
2018-07-30T14:11:42.153Z,26.70
2018-07-30T14:14:12.244Z,26.60
2018-07-30T14:16:42.327Z,26.70
2018-07-30T14:19:12.453Z,26.80
2018-07-30T14:21:42.559Z,26.90
2018-07-30T14:24:12.700Z,26.90
2018-07-30T14:26:42.835Z,26.90
2018-07-30T14:29:12.968Z,26.80
2018-07-30T14:31:43.060Z,26.70
2018-07-30T14:34:13.185Z,26.90
2018-07-30T14:36:43.375Z,27.00
2018-07-30T14:39:13.468Z,26.80
2018-07-30T14:41:43.600Z,26.80
2018-07-30T14:44:13.737Z,26.70
2018-07-30T14:46:44.008Z,26.70
2018-07-30T14:49:14.191Z,26.70
2018-07-30T14:51:44.269Z,26.70
2018-07-30T14:54:14.324Z,26.90
2018-07-30T14:56:44.404Z,26.60
2018-07-30T14:59:15.416Z,26.50
2018-07-30T15:01:45.500Z,26.60
2018-07-30T15:04:15.620Z,26.30
2018-07-30T15:06:45.780Z,26.40
2018-07-30T15:09:16.232Z,26.50
2018-07-30T15:11:46.320Z,26.60
2018-07-30T15:14:16.414Z,26.60
2018-07-30T15:16:46.496Z,26.70
2018-07-30T15:19:16.631Z,26.70
2018-07-30T15:21:46.808Z,26.70
2018-07-30T15:24:16.895Z,26.50
2018-07-30T15:26:47.700Z,26.40
2018-07-30T15:29:17.876Z,26.20
2018-07-30T15:31:48.175Z,25.90
2018-07-30T15:34:18.347Z,25.80
2018-07-30T15:36:48.483Z,25.70
2018-07-30T15:39:18.608Z,25.90
2018-07-30T15:41:48.774Z,26.00
2018-07-30T15:44:19.048Z,26.00
2018-07-30T15:46:49.184Z,26.10
2018-07-30T15:49:19.368Z,26.00
2018-07-30T15:51:50.519Z,26.10
2018-07-30T15:54:21.036Z,26.00
2018-07-30T15:59:26.620Z,25.80
2018-07-30T16:01:56.778Z,25.80
2018-07-30T16:04:26.852Z,25.90
2018-07-30T16:06:56.972Z,26.00
2018-07-30T16:09:27.135Z,26.00
2018-07-30T16:11:57.232Z,26.10
2018-07-30T16:14:27.376Z,25.90
2018-07-30T16:16:57.676Z,25.90
2018-07-30T16:19:27.822Z,25.80
2018-07-30T16:21:58.105Z,25.80
2018-07-30T16:24:28.231Z,25.80
2018-07-30T16:26:58.417Z,25.80
2018-07-30T16:29:29.507Z,25.80
2018-07-30T16:34:32.009Z,25.70
2018-07-30T16:37:02.242Z,25.60
2018-07-30T16:39:32.374Z,25.50
2018-07-30T16:42:02.486Z,25.50
2018-07-30T16:47:02.384Z,25.30
2018-07-30T16:49:32.547Z,25.40
2018-07-30T16:52:02.700Z,25.30
2018-07-30T16:54:33.021Z,25.30
2018-07-30T16:57:03.516Z,25.30
2018-07-30T16:59:33.781Z,25.30
2018-07-30T17:02:03.935Z,25.30
2018-07-30T17:04:34.162Z,25.30
2018-07-30T17:09:33.923Z,25.20
2018-07-30T17:12:04.076Z,25.30
2018-07-30T17:14:34.235Z,25.30
2018-07-30T17:17:04.532Z,25.20
2018-07-30T17:19:34.715Z,25.20
2018-07-30T17:22:05.479Z,25.20
2018-07-30T17:24:35.963Z,25.20
2018-07-30T17:27:06.902Z,25.10
2018-07-30T17:29:37.964Z,25.20
2018-07-30T17:32:08.337Z,25.10
2018-07-30T17:34:38.548Z,25.10
2018-07-30T17:37:08.678Z,25.10
2018-07-30T17:39:39.032Z,25.10
2018-07-30T17:42:09.260Z,25.00
2018-07-30T17:44:39.347Z,24.90
2018-07-30T17:47:09.476Z,24.80
2018-07-30T17:49:39.732Z,24.80
2018-07-30T17:54:39.351Z,24.70
2018-07-30T17:57:09.835Z,24.70
2018-07-30T17:59:39.996Z,24.70
2018-07-30T18:04:39.766Z,24.60
2018-07-30T18:07:09.860Z,24.60
2018-07-30T18:09:40.277Z,24.70
2018-07-30T18:12:10.381Z,24.60
2018-07-30T18:14:40.621Z,24.60
2018-07-30T18:17:10.751Z,24.60
2018-07-30T18:19:41.808Z,24.60
2018-07-30T18:24:41.678Z,24.50
2018-07-30T18:27:12.140Z,24.50
2018-07-30T18:29:43.017Z,24.50
2018-07-30T18:32:13.127Z,24.50
2018-07-30T18:34:43.460Z,24.50
2018-07-30T18:37:13.532Z,24.50
2018-07-30T18:39:43.935Z,24.50
2018-07-30T18:42:14.212Z,24.50
2018-07-30T18:44:44.698Z,24.40
2018-07-30T18:47:15.188Z,24.40
2018-07-30T18:49:45.308Z,24.40
2018-07-30T18:52:15.520Z,24.40
2018-07-30T18:54:45.666Z,24.30
2018-07-30T18:57:15.868Z,24.30
2018-07-30T18:59:45.991Z,24.30
2018-07-30T19:02:16.686Z,24.30
2018-07-30T19:04:47.098Z,24.30
2018-07-30T19:07:17.393Z,24.30
2018-07-30T19:09:47.664Z,24.30
2018-07-30T19:12:18.107Z,24.30
2018-07-30T19:14:48.292Z,24.30
2018-07-30T19:17:18.781Z,24.30
2018-07-30T19:19:48.795Z,24.30
2018-07-30T19:22:19.246Z,24.30
2018-07-30T19:24:49.663Z,24.30
2018-07-30T19:27:19.918Z,24.30
2018-07-30T19:29:50.476Z,24.20
2018-07-30T19:34:50.396Z,24.20
2018-07-30T19:37:20.619Z,24.10
2018-07-30T19:42:20.900Z,24.10
2018-07-30T19:44:51.412Z,24.10
2018-07-30T19:47:21.539Z,24.10
2018-07-30T19:49:51.693Z,24.10
2018-07-30T19:54:51.600Z,24.00
2018-07-30T19:57:24.577Z,24.00
2018-07-30T19:59:55.048Z,24.00
2018-07-30T20:02:25.201Z,24.00
2018-07-30T20:04:55.370Z,24.00
2018-07-30T20:07:25.550Z,24.00
2018-07-30T20:09:55.767Z,24.00
2018-07-30T20:12:25.808Z,24.00
2018-07-30T20:14:56.071Z,24.00
2018-07-30T20:17:26.163Z,24.00
2018-07-30T20:19:56.395Z,23.90
2018-07-30T20:22:26.461Z,23.90
2018-07-30T20:24:57.160Z,24.00
2018-07-30T20:27:27.508Z,24.00
2018-07-30T20:29:57.531Z,24.00
2018-07-30T20:32:27.600Z,24.00
2018-07-30T20:34:57.668Z,24.10
2018-07-30T20:37:28.252Z,24.10
2018-07-30T20:39:58.628Z,24.00
2018-07-30T20:42:28.703Z,24.00
2018-07-30T20:44:58.864Z,24.00
2018-07-30T20:47:29.115Z,24.00
2018-07-30T20:49:59.195Z,24.00
2018-07-30T20:52:29.250Z,24.00
2018-07-30T20:54:59.319Z,24.00
2018-07-30T20:57:29.338Z,24.00
2018-07-30T21:02:28.770Z,24.10
2018-07-30T21:04:59.018Z,24.00
2018-07-30T21:07:30.270Z,24.00
2018-07-30T21:10:00.396Z,24.00
2018-07-30T21:14:59.989Z,24.00
2018-07-30T21:17:30.056Z,24.00
2018-07-30T21:20:00.168Z,24.00
2018-07-30T21:22:30.383Z,24.00
2018-07-30T21:25:00.668Z,24.00
2018-07-30T21:27:31.384Z,24.00
2018-07-30T21:30:01.402Z,24.00
2018-07-30T21:32:31.568Z,24.00
2018-07-30T21:35:01.906Z,24.10
2018-07-30T21:37:31.975Z,24.10
2018-07-30T21:40:02.049Z,24.00
2018-07-30T21:42:32.208Z,24.00
2018-07-30T21:45:02.200Z,24.00
2018-07-30T21:47:32.356Z,24.10
2018-07-30T21:50:03.110Z,24.10
2018-07-30T21:52:33.143Z,24.10
2018-07-30T21:55:04.104Z,24.10
2018-07-30T22:00:04.373Z,24.20
2018-07-30T22:02:34.448Z,24.30
2018-07-30T22:05:05.932Z,24.30
2018-07-30T22:07:36.020Z,24.30
2018-07-30T22:10:06.232Z,24.30
2018-07-30T22:12:36.317Z,24.20
2018-07-30T22:17:37.660Z,24.20
2018-07-30T22:20:07.773Z,24.10
2018-07-30T22:22:38.531Z,24.10
2018-07-30T22:27:38.272Z,24.10
2018-07-30T22:32:38.832Z,24.00
2018-07-30T22:35:10.482Z,23.90
2018-07-30T22:37:40.540Z,24.00
2018-07-30T22:40:10.601Z,23.80
2018-07-30T22:42:40.663Z,23.90
2018-07-30T22:45:10.903Z,23.80
2018-07-30T22:50:10.688Z,23.80
2018-07-30T22:52:40.759Z,23.90
2018-07-30T22:55:10.871Z,23.90
2018-07-30T22:57:40.936Z,23.80
2018-07-30T23:00:11.151Z,23.80
2018-07-30T23:02:41.386Z,23.70
2018-07-30T23:05:11.473Z,23.70
2018-07-30T23:07:41.468Z,23.70
2018-07-30T23:10:11.568Z,23.70
2018-07-30T23:12:41.752Z,23.70
2018-07-30T23:15:11.970Z,23.60
2018-07-30T23:17:42.067Z,23.60
2018-07-30T23:20:12.097Z,23.60
2018-07-30T23:22:42.391Z,23.60
2018-07-30T23:25:12.457Z,23.60
2018-07-30T23:27:42.559Z,23.60
2018-07-30T23:30:12.644Z,23.60
2018-07-30T23:32:42.833Z,23.60
2018-07-30T23:35:12.952Z,23.70
2018-07-30T23:37:44.028Z,23.70
2018-07-30T23:40:14.091Z,23.70
2018-07-30T23:42:44.084Z,23.80
2018-07-30T23:45:14.228Z,23.70
2018-07-30T23:47:44.328Z,23.70
2018-07-30T23:50:15.078Z,23.70
2018-07-30T23:52:45.184Z,23.70
2018-07-30T23:55:15.381Z,23.70
2018-07-30T23:57:45.381Z,23.70
